sensor_id;sensor_type;location;lat;lon;timestamp;temperature;humidity
23116;DHT22;11727;52.134;5.052;2023-03-01T00:02:05;-0.60;99.90
23116;DHT22;11727;52.134;5.052;2023-03-01T00:04:31;-0.60;99.90
23116;DHT22;11727;52.134;5.052;2023-03-01T00:06:57;-0.70;99.90
23116;DHT22;11727;52.134;5.052;2023-03-01T00:09:23;-0.70;99.90
23116;DHT22;11727;52.134;5.052;2023-03-01T00:11:48;-0.70;99.90
23116;DHT22;11727;52.134;5.052;2023-03-01T00:14:15;-0.70;99.90
23116;DHT22;11727;52.134;5.052;2023-03-01T00:16:43;-0.70;99.90
23116;DHT22;11727;52.134;5.052;2023-03-01T00:19:12;-0.70;99.90
23116;DHT22;11727;52.134;5.052;2023-03-01T00:21:38;-0.70;99.90
23116;DHT22;11727;52.134;5.052;2023-03-01T00:24:04;-0.70;99.90
23116;DHT22;11727;52.134;5.052;2023-03-01T00:26:30;-0.80;99.90
23116;DHT22;11727;52.134;5.052;2023-03-01T00:28:57;-0.80;99.90
23116;DHT22;11727;52.134;5.052;2023-03-01T00:31:24;-0.80;99.90
23116;DHT22;11727;52.134;5.052;2023-03-01T00:33:57;-0.90;99.90
23116;DHT22;11727;52.134;5.052;2023-03-01T00:36:25;-0.90;99.90
23116;DHT22;11727;52.134;5.052;2023-03-01T00:38:51;-0.90;99.90
23116;DHT22;11727;52.134;5.052;2023-03-01T00:41:18;-1.00;99.90
23116;DHT22;11727;52.134;5.052;2023-03-01T00:43:44;-1.00;99.90
23116;DHT22;11727;52.134;5.052;2023-03-01T00:46:12;-1.00;99.90
23116;DHT22;11727;52.134;5.052;2023-03-01T00:48:38;-1.10;99.90
23116;DHT22;11727;52.134;5.052;2023-03-01T00:51:11;-1.10;99.90
23116;DHT22;11727;52.134;5.052;2023-03-01T00:53:38;-1.10;99.90
23116;DHT22;11727;52.134;5.052;2023-03-01T00:56:05;-1.10;99.90
23116;DHT22;11727;52.134;5.052;2023-03-01T00:58:31;-1.10;99.90
23116;DHT22;11727;52.134;5.052;2023-03-01T01:00:56;-1.20;99.90
23116;DHT22;11727;52.134;5.052;2023-03-01T01:03:22;-1.20;99.90
23116;DHT22;11727;52.134;5.052;2023-03-01T01:05:50;-1.20;99.90
23116;DHT22;11727;52.134;5.052;2023-03-01T01:08:16;-1.30;99.90
23116;DHT22;11727;52.134;5.052;2023-03-01T01:10:44;-1.30;99.90
23116;DHT22;11727;52.134;5.052;2023-03-01T01:13:10;-1.30;99.90
23116;DHT22;11727;52.134;5.052;2023-03-01T01:15:35;-1.30;99.90
23116;DHT22;11727;52.134;5.052;2023-03-01T01:18:01;-1.30;99.90
23116;DHT22;11727;52.134;5.052;2023-03-01T01:20:27;-1.40;99.90
23116;DHT22;11727;52.134;5.052;2023-03-01T01:22:53;-1.40;99.90
23116;DHT22;11727;52.134;5.052;2023-03-01T01:25:19;-1.40;99.90
23116;DHT22;11727;52.134;5.052;2023-03-01T01:27:44;-1.40;99.90
23116;DHT22;11727;52.134;5.052;2023-03-01T01:30:11;-1.40;99.90
23116;DHT22;11727;52.134;5.052;2023-03-01T01:32:37;-1.50;99.90
23116;DHT22;11727;52.134;5.052;2023-03-01T01:35:02;-1.50;99.90
23116;DHT22;11727;52.134;5.052;2023-03-01T01:37:28;-1.50;99.90
23116;DHT22;11727;52.134;5.052;2023-03-01T01:40:00;-1.50;99.90
23116;DHT22;11727;52.134;5.052;2023-03-01T01:42:26;-1.60;99.90
23116;DHT22;11727;52.134;5.052;2023-03-01T01:47:49;-1.60;99.90
23116;DHT22;11727;52.134;5.052;2023-03-01T01:50:17;-1.60;99.90
23116;DHT22;11727;52.134;5.052;2023-03-01T01:52:45;-1.70;99.90
23116;DHT22;11727;52.134;5.052;2023-03-01T01:55:15;-1.70;99.90
23116;DHT22;11727;52.134;5.052;2023-03-01T01:57:57;-1.70;99.90
23116;DHT22;11727;52.134;5.052;2023-03-01T02:00:27;-1.70;99.90
23116;DHT22;11727;52.134;5.052;2023-03-01T02:02:58;-1.80;99.90
23116;DHT22;11727;52.134;5.052;2023-03-01T02:05:42;-1.80;99.90
23116;DHT22;11727;52.134;5.052;2023-03-01T02:08:11;-1.80;99.90
23116;DHT22;11727;52.134;5.052;2023-03-01T02:10:37;-1.80;99.90
23116;DHT22;11727;52.134;5.052;2023-03-01T02:13:04;-1.90;99.90
23116;DHT22;11727;52.134;5.052;2023-03-01T02:15:36;-1.90;99.90
23116;DHT22;11727;52.134;5.052;2023-03-01T02:18:03;-1.90;99.90
23116;DHT22;11727;52.134;5.052;2023-03-01T02:20:44;-1.90;99.90
23116;DHT22;11727;52.134;5.052;2023-03-01T02:23:14;-1.90;99.90
23116;DHT22;11727;52.134;5.052;2023-03-01T02:30:42;-2.00;99.90
23116;DHT22;11727;52.134;5.052;2023-03-01T02:33:29;-2.00;99.90
23116;DHT22;11727;52.134;5.052;2023-03-01T02:35:59;-2.00;99.90
23116;DHT22;11727;52.134;5.052;2023-03-01T02:38:25;-2.00;99.90
23116;DHT22;11727;52.134;5.052;2023-03-01T02:40:52;-2.00;99.90
23116;DHT22;11727;52.134;5.052;2023-03-01T02:43:23;-2.10;99.90
23116;DHT22;11727;52.134;5.052;2023-03-01T02:45:52;-2.10;99.90
23116;DHT22;11727;52.134;5.052;2023-03-01T02:48:18;-2.10;99.90
23116;DHT22;11727;52.134;5.052;2023-03-01T02:51:01;-2.10;99.90
23116;DHT22;11727;52.134;5.052;2023-03-01T02:56:15;-2.10;99.90
23116;DHT22;11727;52.134;5.052;2023-03-01T02:58:43;-2.20;99.90
23116;DHT22;11727;52.134;5.052;2023-03-01T03:01:17;-2.20;99.90
23116;DHT22;11727;52.134;5.052;2023-03-01T03:03:42;-2.20;99.90
23116;DHT22;11727;52.134;5.052;2023-03-01T03:06:08;-2.20;99.90
23116;DHT22;11727;52.134;5.052;2023-03-01T03:08:34;-2.20;99.90
23116;DHT22;11727;52.134;5.052;2023-03-01T03:11:00;-2.20;99.90
23116;DHT22;11727;52.134;5.052;2023-03-01T03:13:25;-2.20;99.90
23116;DHT22;11727;52.134;5.052;2023-03-01T03:15:55;-2.20;99.90
23116;DHT22;11727;52.134;5.052;2023-03-01T03:18:22;-2.20;99.90
23116;DHT22;11727;52.134;5.052;2023-03-01T03:20:48;-2.20;99.90
23116;DHT22;11727;52.134;5.052;2023-03-01T03:23:21;-2.20;99.90
23116;DHT22;11727;52.134;5.052;2023-03-01T03:25:51;-2.30;99.90
23116;DHT22;11727;52.134;5.052;2023-03-01T03:28:17;-2.30;99.90
23116;DHT22;11727;52.134;5.052;2023-03-01T03:30:43;-2.30;99.90
23116;DHT22;11727;52.134;5.052;2023-03-01T03:33:11;-2.30;99.90
23116;DHT22;11727;52.134;5.052;2023-03-01T03:35:45;-2.30;99.90
23116;DHT22;11727;52.134;5.052;2023-03-01T03:38:13;-2.30;99.90
23116;DHT22;11727;52.134;5.052;2023-03-01T03:40:59;-2.30;99.90
23116;DHT22;11727;52.134;5.052;2023-03-01T03:43:27;-2.30;99.90
23116;DHT22;11727;52.134;5.052;2023-03-01T03:45:53;-2.30;99.90
23116;DHT22;11727;52.134;5.052;2023-03-01T03:48:19;-2.30;99.90
23116;DHT22;11727;52.134;5.052;2023-03-01T03:50:55;-2.30;99.90
23116;DHT22;11727;52.134;5.052;2023-03-01T03:53:22;-2.30;99.90
23116;DHT22;11727;52.134;5.052;2023-03-01T03:55:48;-2.40;99.90
23116;DHT22;11727;52.134;5.052;2023-03-01T03:58:15;-2.40;99.90
23116;DHT22;11727;52.134;5.052;2023-03-01T04:00:44;-2.40;99.90
23116;DHT22;11727;52.134;5.052;2023-03-01T04:03:11;-2.40;99.90
23116;DHT22;11727;52.134;5.052;2023-03-01T04:05:38;-2.40;99.90
23116;DHT22;11727;52.134;5.052;2023-03-01T04:08:04;-2.50;99.90
23116;DHT22;11727;52.134;5.052;2023-03-01T04:10:59;-2.50;99.90
23116;DHT22;11727;52.134;5.052;2023-03-01T04:13:26;-2.50;99.90
23116;DHT22;11727;52.134;5.052;2023-03-01T04:15:53;-2.50;99.90
23116;DHT22;11727;52.134;5.052;2023-03-01T04:18:22;-2.50;99.90
23116;DHT22;11727;52.134;5.052;2023-03-01T04:20:48;-2.50;99.90
23116;DHT22;11727;52.134;5.052;2023-03-01T04:23:18;-2.60;99.90
23116;DHT22;11727;52.134;5.052;2023-03-01T04:25:46;-2.60;99.90
23116;DHT22;11727;52.134;5.052;2023-03-01T04:28:19;-2.60;99.90
23116;DHT22;11727;52.134;5.052;2023-03-01T04:30:44;-2.60;99.90
23116;DHT22;11727;52.134;5.052;2023-03-01T04:33:10;-2.60;99.90
23116;DHT22;11727;52.134;5.052;2023-03-01T04:35:37;-2.60;99.90
23116;DHT22;11727;52.134;5.052;2023-03-01T04:38:04;-2.60;99.90
23116;DHT22;11727;52.134;5.052;2023-03-01T04:40:30;-2.70;99.90
23116;DHT22;11727;52.134;5.052;2023-03-01T04:42:56;-2.70;99.90
23116;DHT22;11727;52.134;5.052;2023-03-01T04:45:23;-2.70;99.90
23116;DHT22;11727;52.134;5.052;2023-03-01T04:47:48;-2.80;99.90
23116;DHT22;11727;52.134;5.052;2023-03-01T04:50:16;-2.80;99.90
23116;DHT22;11727;52.134;5.052;2023-03-01T04:52:43;-2.80;99.90
23116;DHT22;11727;52.134;5.052;2023-03-01T04:55:10;-2.80;99.90
23116;DHT22;11727;52.134;5.052;2023-03-01T04:57:36;-2.80;99.90
23116;DHT22;11727;52.134;5.052;2023-03-01T05:00:03;-2.80;99.90
23116;DHT22;11727;52.134;5.052;2023-03-01T05:05:19;-2.80;99.90
23116;DHT22;11727;52.134;5.052;2023-03-01T05:07:45;-2.70;99.90
23116;DHT22;11727;52.134;5.052;2023-03-01T05:10:10;-2.80;99.90
23116;DHT22;11727;52.134;5.052;2023-03-01T05:12:36;-2.80;99.90
23116;DHT22;11727;52.134;5.052;2023-03-01T05:15:03;-2.80;99.90
23116;DHT22;11727;52.134;5.052;2023-03-01T05:17:33;-2.80;99.90
23116;DHT22;11727;52.134;5.052;2023-03-01T05:19:59;-2.80;99.90
23116;DHT22;11727;52.134;5.052;2023-03-01T05:22:25;-2.80;99.90
23116;DHT22;11727;52.134;5.052;2023-03-01T05:24:50;-2.80;99.90
23116;DHT22;11727;52.134;5.052;2023-03-01T05:27:16;-2.80;99.90
23116;DHT22;11727;52.134;5.052;2023-03-01T05:29:42;-2.90;99.90
23116;DHT22;11727;52.134;5.052;2023-03-01T05:32:07;-2.90;99.90
23116;DHT22;11727;52.134;5.052;2023-03-01T05:34:35;-2.90;99.90
23116;DHT22;11727;52.134;5.052;2023-03-01T05:37:01;-2.90;99.90
23116;DHT22;11727;52.134;5.052;2023-03-01T05:39:28;-2.90;99.90
23116;DHT22;11727;52.134;5.052;2023-03-01T05:41:56;-2.90;99.90
23116;DHT22;11727;52.134;5.052;2023-03-01T05:44:23;-3.00;99.90
23116;DHT22;11727;52.134;5.052;2023-03-01T05:46:49;-2.90;99.90
23116;DHT22;11727;52.134;5.052;2023-03-01T05:49:15;-3.00;99.90
23116;DHT22;11727;52.134;5.052;2023-03-01T05:51:42;-3.00;99.90
23116;DHT22;11727;52.134;5.052;2023-03-01T05:54:11;-3.10;99.90
23116;DHT22;11727;52.134;5.052;2023-03-01T05:56:37;-3.10;99.90
23116;DHT22;11727;52.134;5.052;2023-03-01T05:59:04;-3.10;99.90
23116;DHT22;11727;52.134;5.052;2023-03-01T06:01:31;-3.10;99.90
23116;DHT22;11727;52.134;5.052;2023-03-01T06:03:56;-3.10;99.90
23116;DHT22;11727;52.134;5.052;2023-03-01T06:06:23;-3.10;99.90
23116;DHT22;11727;52.134;5.052;2023-03-01T06:08:49;-3.10;99.90
23116;DHT22;11727;52.134;5.052;2023-03-01T06:11:15;-3.10;99.90
23116;DHT22;11727;52.134;5.052;2023-03-01T06:13:42;-3.10;99.90
23116;DHT22;11727;52.134;5.052;2023-03-01T06:16:08;-3.20;99.90
23116;DHT22;11727;52.134;5.052;2023-03-01T06:18:34;-3.20;99.90
23116;DHT22;11727;52.134;5.052;2023-03-01T06:20:59;-3.20;99.90
23116;DHT22;11727;52.134;5.052;2023-03-01T06:23:25;-3.20;99.90
23116;DHT22;11727;52.134;5.052;2023-03-01T06:25:51;-3.20;99.90
23116;DHT22;11727;52.134;5.052;2023-03-01T06:28:16;-3.20;99.90
23116;DHT22;11727;52.134;5.052;2023-03-01T06:30:42;-3.20;99.90
23116;DHT22;11727;52.134;5.052;2023-03-01T06:33:08;-3.20;99.90
23116;DHT22;11727;52.134;5.052;2023-03-01T06:35:33;-3.20;99.90
23116;DHT22;11727;52.134;5.052;2023-03-01T06:38:00;-3.10;99.90
23116;DHT22;11727;52.134;5.052;2023-03-01T06:40:27;-3.10;99.90
23116;DHT22;11727;52.134;5.052;2023-03-01T06:42:52;-3.10;99.90
23116;DHT22;11727;52.134;5.052;2023-03-01T06:45:19;-3.10;99.90
23116;DHT22;11727;52.134;5.052;2023-03-01T06:47:45;-3.10;99.90
23116;DHT22;11727;52.134;5.052;2023-03-01T06:50:11;-3.10;99.90
23116;DHT22;11727;52.134;5.052;2023-03-01T06:52:38;-3.10;99.90
23116;DHT22;11727;52.134;5.052;2023-03-01T06:55:04;-3.10;99.90
23116;DHT22;11727;52.134;5.052;2023-03-01T06:57:30;-3.10;99.90
23116;DHT22;11727;52.134;5.052;2023-03-01T06:59:55;-3.00;99.90
23116;DHT22;11727;52.134;5.052;2023-03-01T07:02:21;-3.00;99.90
23116;DHT22;11727;52.134;5.052;2023-03-01T07:04:49;-3.00;99.90
23116;DHT22;11727;52.134;5.052;2023-03-01T07:07:15;-2.90;99.90
23116;DHT22;11727;52.134;5.052;2023-03-01T07:09:46;-2.80;99.90
23116;DHT22;11727;52.134;5.052;2023-03-01T07:12:12;-2.70;99.90
23116;DHT22;11727;52.134;5.052;2023-03-01T07:14:38;-2.40;99.90
23116;DHT22;11727;52.134;5.052;2023-03-01T07:17:03;-2.10;99.90
23116;DHT22;11727;52.134;5.052;2023-03-01T07:19:29;-1.70;99.90
23116;DHT22;11727;52.134;5.052;2023-03-01T07:21:54;-1.40;99.90
23116;DHT22;11727;52.134;5.052;2023-03-01T07:24:21;-1.10;99.90
23116;DHT22;11727;52.134;5.052;2023-03-01T07:26:50;-0.80;99.90
23116;DHT22;11727;52.134;5.052;2023-03-01T07:29:16;-0.60;99.90
23116;DHT22;11727;52.134;5.052;2023-03-01T07:31:42;-0.40;99.90
23116;DHT22;11727;52.134;5.052;2023-03-01T07:34:08;-0.30;99.90
23116;DHT22;11727;52.134;5.052;2023-03-01T07:36:34;-0.10;99.90
23116;DHT22;11727;52.134;5.052;2023-03-01T07:38:59;0.00;99.90
23116;DHT22;11727;52.134;5.052;2023-03-01T07:41:27;0.10;99.90
23116;DHT22;11727;52.134;5.052;2023-03-01T07:43:53;0.20;99.90
23116;DHT22;11727;52.134;5.052;2023-03-01T07:46:18;0.40;99.90
23116;DHT22;11727;52.134;5.052;2023-03-01T07:48:44;0.60;99.90
23116;DHT22;11727;52.134;5.052;2023-03-01T07:51:10;0.80;99.90
23116;DHT22;11727;52.134;5.052;2023-03-01T07:53:36;1.10;99.90
23116;DHT22;11727;52.134;5.052;2023-03-01T07:56:07;1.20;99.90
23116;DHT22;11727;52.134;5.052;2023-03-01T07:58:38;1.30;99.90
23116;DHT22;11727;52.134;5.052;2023-03-01T08:01:06;1.50;99.90
23116;DHT22;11727;52.134;5.052;2023-03-01T08:03:33;1.60;99.90
23116;DHT22;11727;52.134;5.052;2023-03-01T08:06:03;1.70;99.90
23116;DHT22;11727;52.134;5.052;2023-03-01T08:08:29;1.70;99.90
23116;DHT22;11727;52.134;5.052;2023-03-01T08:10:59;1.70;99.90
23116;DHT22;11727;52.134;5.052;2023-03-01T08:13:25;1.80;99.90
23116;DHT22;11727;52.134;5.052;2023-03-01T08:15:51;1.90;99.90
23116;DHT22;11727;52.134;5.052;2023-03-01T08:18:19;2.00;99.90
23116;DHT22;11727;52.134;5.052;2023-03-01T08:20:45;2.00;99.90
23116;DHT22;11727;52.134;5.052;2023-03-01T08:23:11;2.10;99.90
23116;DHT22;11727;52.134;5.052;2023-03-01T08:25:37;2.10;99.90
23116;DHT22;11727;52.134;5.052;2023-03-01T08:28:03;2.30;99.90
23116;DHT22;11727;52.134;5.052;2023-03-01T08:30:29;2.40;99.90
23116;DHT22;11727;52.134;5.052;2023-03-01T08:32:55;2.60;99.90
23116;DHT22;11727;52.134;5.052;2023-03-01T08:35:21;2.70;99.90
23116;DHT22;11727;52.134;5.052;2023-03-01T08:37:47;2.80;99.90
23116;DHT22;11727;52.134;5.052;2023-03-01T08:40:13;2.90;99.90
23116;DHT22;11727;52.134;5.052;2023-03-01T08:42:40;3.00;99.90
23116;DHT22;11727;52.134;5.052;2023-03-01T08:45:07;3.10;99.90
23116;DHT22;11727;52.134;5.052;2023-03-01T08:47:33;3.10;99.90
23116;DHT22;11727;52.134;5.052;2023-03-01T08:49:59;3.20;99.90
23116;DHT22;11727;52.134;5.052;2023-03-01T08:52:25;3.40;99.90
23116;DHT22;11727;52.134;5.052;2023-03-01T08:54:51;3.40;99.90
23116;DHT22;11727;52.134;5.052;2023-03-01T08:57:17;3.50;99.90
23116;DHT22;11727;52.134;5.052;2023-03-01T08:59:42;3.40;99.90
23116;DHT22;11727;52.134;5.052;2023-03-01T09:02:18;3.30;99.90
23116;DHT22;11727;52.134;5.052;2023-03-01T09:04:44;3.20;99.90
23116;DHT22;11727;52.134;5.052;2023-03-01T09:07:10;2.90;99.90
23116;DHT22;11727;52.134;5.052;2023-03-01T09:09:36;2.90;99.90
23116;DHT22;11727;52.134;5.052;2023-03-01T09:12:02;2.90;99.90
23116;DHT22;11727;52.134;5.052;2023-03-01T09:14:28;2.90;99.90
23116;DHT22;11727;52.134;5.052;2023-03-01T09:16:54;2.80;99.90
23116;DHT22;11727;52.134;5.052;2023-03-01T09:19:19;2.90;99.90
23116;DHT22;11727;52.134;5.052;2023-03-01T09:21:45;2.90;99.90
23116;DHT22;11727;52.134;5.052;2023-03-01T09:24:18;3.00;99.90
23116;DHT22;11727;52.134;5.052;2023-03-01T09:26:44;3.00;99.90
23116;DHT22;11727;52.134;5.052;2023-03-01T09:29:13;3.10;99.90
23116;DHT22;11727;52.134;5.052;2023-03-01T09:31:39;3.30;99.90
23116;DHT22;11727;52.134;5.052;2023-03-01T09:34:06;3.40;99.90
23116;DHT22;11727;52.134;5.052;2023-03-01T09:36:32;3.50;99.90
23116;DHT22;11727;52.134;5.052;2023-03-01T09:39:02;3.60;99.90
23116;DHT22;11727;52.134;5.052;2023-03-01T09:41:55;3.60;99.90
23116;DHT22;11727;52.134;5.052;2023-03-01T09:46:55;3.80;99.90
23116;DHT22;11727;52.134;5.052;2023-03-01T09:49:25;3.80;99.90
23116;DHT22;11727;52.134;5.052;2023-03-01T09:52:03;3.90;99.90
23116;DHT22;11727;52.134;5.052;2023-03-01T09:54:30;3.90;99.90
23116;DHT22;11727;52.134;5.052;2023-03-01T09:57:18;4.00;99.90
23116;DHT22;11727;52.134;5.052;2023-03-01T10:05:05;4.50;99.90
23116;DHT22;11727;52.134;5.052;2023-03-01T10:10:38;5.00;99.90
23116;DHT22;11727;52.134;5.052;2023-03-01T10:13:18;5.40;99.90
23116;DHT22;11727;52.134;5.052;2023-03-01T10:15:51;5.60;99.90
23116;DHT22;11727;52.134;5.052;2023-03-01T10:18:26;5.90;99.90
23116;DHT22;11727;52.134;5.052;2023-03-01T10:21:15;6.20;99.90
23116;DHT22;11727;52.134;5.052;2023-03-01T10:23:42;6.50;99.90
23116;DHT22;11727;52.134;5.052;2023-03-01T10:26:30;6.70;99.90
23116;DHT22;11727;52.134;5.052;2023-03-01T10:29:08;6.80;99.90
23116;DHT22;11727;52.134;5.052;2023-03-01T10:31:51;7.00;99.90
23116;DHT22;11727;52.134;5.052;2023-03-01T10:34:27;7.20;99.90
23116;DHT22;11727;52.134;5.052;2023-03-01T10:36:57;7.20;99.90
23116;DHT22;11727;52.134;5.052;2023-03-01T10:39:25;7.30;99.90
23116;DHT22;11727;52.134;5.052;2023-03-01T10:41:58;7.40;99.90
23116;DHT22;11727;52.134;5.052;2023-03-01T10:47:23;7.40;99.90
23116;DHT22;11727;52.134;5.052;2023-03-01T10:50:01;7.60;99.90
23116;DHT22;11727;52.134;5.052;2023-03-01T10:52:36;7.80;99.90
23116;DHT22;11727;52.134;5.052;2023-03-01T10:55:34;7.80;99.90
23116;DHT22;11727;52.134;5.052;2023-03-01T10:58:30;7.80;99.90
23116;DHT22;11727;52.134;5.052;2023-03-01T11:00:59;7.70;99.90
23116;DHT22;11727;52.134;5.052;2023-03-01T11:03:32;7.70;99.90
23116;DHT22;11727;52.134;5.052;2023-03-01T11:06:04;7.60;99.90
23116;DHT22;11727;52.134;5.052;2023-03-01T11:08:47;7.60;99.90
23116;DHT22;11727;52.134;5.052;2023-03-01T11:11:33;7.70;99.90
23116;DHT22;11727;52.134;5.052;2023-03-01T11:14:07;7.80;99.90
23116;DHT22;11727;52.134;5.052;2023-03-01T11:16:39;7.90;99.90
23116;DHT22;11727;52.134;5.052;2023-03-01T11:21:39;7.90;99.90
23116;DHT22;11727;52.134;5.052;2023-03-01T11:24:10;7.80;99.90
23116;DHT22;11727;52.134;5.052;2023-03-01T11:26:40;8.00;99.90
23116;DHT22;11727;52.134;5.052;2023-03-01T11:29:16;8.00;99.90
23116;DHT22;11727;52.134;5.052;2023-03-01T11:31:44;8.00;99.90
23116;DHT22;11727;52.134;5.052;2023-03-01T11:34:12;8.00;99.90
23116;DHT22;11727;52.134;5.052;2023-03-01T11:37:28;8.30;99.90
23116;DHT22;11727;52.134;5.052;2023-03-01T11:42:46;8.70;99.90
23116;DHT22;11727;52.134;5.052;2023-03-01T11:45:13;8.80;99.90
23116;DHT22;11727;52.134;5.052;2023-03-01T11:52:52;8.50;99.90
23116;DHT22;11727;52.134;5.052;2023-03-01T11:55:26;8.60;99.90
23116;DHT22;11727;52.134;5.052;2023-03-01T12:06:50;8.50;99.90
23116;DHT22;11727;52.134;5.052;2023-03-01T12:09:51;8.50;99.90
23116;DHT22;11727;52.134;5.052;2023-03-01T12:12:26;8.50;99.90
23116;DHT22;11727;52.134;5.052;2023-03-01T12:15:05;8.60;99.90
23116;DHT22;11727;52.134;5.052;2023-03-01T12:23:38;8.40;99.90
23116;DHT22;11727;52.134;5.052;2023-03-01T12:28:55;8.40;99.90
23116;DHT22;11727;52.134;5.052;2023-03-01T12:31:54;8.40;99.90
23116;DHT22;11727;52.134;5.052;2023-03-01T12:37:31;8.40;99.90
23116;DHT22;11727;52.134;5.052;2023-03-01T12:45:14;8.60;99.90
23116;DHT22;11727;52.134;5.052;2023-03-01T12:50:43;8.40;99.90
23116;DHT22;11727;52.134;5.052;2023-03-01T12:53:37;8.40;99.90
23116;DHT22;11727;52.134;5.052;2023-03-01T12:56:11;8.60;99.90
23116;DHT22;11727;52.134;5.052;2023-03-01T13:01:08;8.60;99.90
23116;DHT22;11727;52.134;5.052;2023-03-01T13:03:48;8.60;99.90
23116;DHT22;11727;52.134;5.052;2023-03-01T13:09:19;8.80;99.90
23116;DHT22;11727;52.134;5.052;2023-03-01T13:11:48;8.90;99.90
23116;DHT22;11727;52.134;5.052;2023-03-01T13:16:46;8.60;99.90
23116;DHT22;11727;52.134;5.052;2023-03-01T13:19:24;8.60;99.90
23116;DHT22;11727;52.134;5.052;2023-03-01T13:21:53;8.70;99.90
23116;DHT22;11727;52.134;5.052;2023-03-01T13:24:39;8.70;99.90
23116;DHT22;11727;52.134;5.052;2023-03-01T13:32:27;8.90;99.90
23116;DHT22;11727;52.134;5.052;2023-03-01T13:35:00;9.00;99.90
23116;DHT22;11727;52.134;5.052;2023-03-01T13:37:32;9.20;99.90
23116;DHT22;11727;52.134;5.052;2023-03-01T13:40:01;9.50;99.90
23116;DHT22;11727;52.134;5.052;2023-03-01T13:42:38;9.60;99.90
23116;DHT22;11727;52.134;5.052;2023-03-01T13:45:20;9.70;99.90
23116;DHT22;11727;52.134;5.052;2023-03-01T13:47:50;9.60;99.90
23116;DHT22;11727;52.134;5.052;2023-03-01T13:50:24;9.50;99.90
23116;DHT22;11727;52.134;5.052;2023-03-01T13:52:54;9.50;99.90
23116;DHT22;11727;52.134;5.052;2023-03-01T13:55:43;9.50;99.90
23116;DHT22;11727;52.134;5.052;2023-03-01T13:58:21;9.60;99.90
23116;DHT22;11727;52.134;5.052;2023-03-01T14:00:47;9.70;99.90
23116;DHT22;11727;52.134;5.052;2023-03-01T14:03:15;9.60;99.90
23116;DHT22;11727;52.134;5.052;2023-03-01T14:05:44;9.60;99.90
23116;DHT22;11727;52.134;5.052;2023-03-01T14:08:25;9.50;99.90
23116;DHT22;11727;52.134;5.052;2023-03-01T14:19:46;10.00;99.90
23116;DHT22;11727;52.134;5.052;2023-03-01T14:22:15;10.00;99.90
23116;DHT22;11727;52.134;5.052;2023-03-01T14:24:51;9.90;99.90
23116;DHT22;11727;52.134;5.052;2023-03-01T14:27:18;9.70;99.90
23116;DHT22;11727;52.134;5.052;2023-03-01T14:29:57;9.70;99.90
23116;DHT22;11727;52.134;5.052;2023-03-01T14:32:31;9.60;99.90
23116;DHT22;11727;52.134;5.052;2023-03-01T14:34:59;9.60;99.90
23116;DHT22;11727;52.134;5.052;2023-03-01T14:37:27;9.70;99.90
23116;DHT22;11727;52.134;5.052;2023-03-01T14:39:54;9.80;99.90
23116;DHT22;11727;52.134;5.052;2023-03-01T14:42:22;9.90;99.90
23116;DHT22;11727;52.134;5.052;2023-03-01T14:44:50;9.90;99.90
23116;DHT22;11727;52.134;5.052;2023-03-01T14:47:46;9.70;99.90
23116;DHT22;11727;52.134;5.052;2023-03-01T14:50:26;9.70;99.90
23116;DHT22;11727;52.134;5.052;2023-03-01T14:53:04;9.50;99.90
23116;DHT22;11727;52.134;5.052;2023-03-01T14:55:37;9.30;99.90
23116;DHT22;11727;52.134;5.052;2023-03-01T14:58:11;9.30;99.90
23116;DHT22;11727;52.134;5.052;2023-03-01T15:00:38;9.20;99.90
23116;DHT22;11727;52.134;5.052;2023-03-01T15:03:12;9.20;99.90
23116;DHT22;11727;52.134;5.052;2023-03-01T15:05:39;9.20;99.90
23116;DHT22;11727;52.134;5.052;2023-03-01T15:08:05;9.20;99.90
23116;DHT22;11727;52.134;5.052;2023-03-01T15:10:36;9.00;99.90
23116;DHT22;11727;52.134;5.052;2023-03-01T15:13:22;9.00;99.90
23116;DHT22;11727;52.134;5.052;2023-03-01T15:15:50;8.90;99.90
23116;DHT22;11727;52.134;5.052;2023-03-01T15:18:25;8.80;99.90
23116;DHT22;11727;52.134;5.052;2023-03-01T15:20:52;8.70;99.90
23116;DHT22;11727;52.134;5.052;2023-03-01T15:23:25;8.60;99.90
23116;DHT22;11727;52.134;5.052;2023-03-01T15:25:52;8.60;99.90
23116;DHT22;11727;52.134;5.052;2023-03-01T15:28:42;8.60;99.90
23116;DHT22;11727;52.134;5.052;2023-03-01T15:31:26;8.60;99.90
23116;DHT22;11727;52.134;5.052;2023-03-01T15:33:51;8.70;99.90
23116;DHT22;11727;52.134;5.052;2023-03-01T15:36:33;8.70;99.90
23116;DHT22;11727;52.134;5.052;2023-03-01T15:39:00;8.60;99.90
23116;DHT22;11727;52.134;5.052;2023-03-01T15:41:31;8.50;99.90
23116;DHT22;11727;52.134;5.052;2023-03-01T15:43:59;8.20;99.90
23116;DHT22;11727;52.134;5.052;2023-03-01T15:46:35;8.20;99.90
23116;DHT22;11727;52.134;5.052;2023-03-01T15:49:33;8.10;99.90
23116;DHT22;11727;52.134;5.052;2023-03-01T15:52:00;8.00;99.90
23116;DHT22;11727;52.134;5.052;2023-03-01T15:54:26;8.00;99.90
23116;DHT22;11727;52.134;5.052;2023-03-01T15:56:52;7.80;99.90
23116;DHT22;11727;52.134;5.052;2023-03-01T15:59:18;7.70;99.90
23116;DHT22;11727;52.134;5.052;2023-03-01T16:01:44;7.80;99.90
23116;DHT22;11727;52.134;5.052;2023-03-01T16:04:12;7.70;99.90
23116;DHT22;11727;52.134;5.052;2023-03-01T16:06:41;7.70;99.90
23116;DHT22;11727;52.134;5.052;2023-03-01T16:09:07;7.70;99.90
23116;DHT22;11727;52.134;5.052;2023-03-01T16:11:35;7.60;99.90
23116;DHT22;11727;52.134;5.052;2023-03-01T16:14:02;7.50;99.90
23116;DHT22;11727;52.134;5.052;2023-03-01T16:16:27;7.50;99.90
23116;DHT22;11727;52.134;5.052;2023-03-01T16:18:53;7.40;99.90
23116;DHT22;11727;52.134;5.052;2023-03-01T16:21:22;7.30;99.90
23116;DHT22;11727;52.134;5.052;2023-03-01T16:23:48;7.30;99.90
23116;DHT22;11727;52.134;5.052;2023-03-01T16:26:14;7.20;99.90
23116;DHT22;11727;52.134;5.052;2023-03-01T16:28:42;7.20;99.90
23116;DHT22;11727;52.134;5.052;2023-03-01T16:31:08;7.10;99.90
23116;DHT22;11727;52.134;5.052;2023-03-01T16:33:34;7.00;99.90
23116;DHT22;11727;52.134;5.052;2023-03-01T16:36:01;6.90;99.90
23116;DHT22;11727;52.134;5.052;2023-03-01T16:38:31;6.80;99.90
23116;DHT22;11727;52.134;5.052;2023-03-01T16:40:57;6.70;99.90
23116;DHT22;11727;52.134;5.052;2023-03-01T16:43:23;6.60;99.90
23116;DHT22;11727;52.134;5.052;2023-03-01T16:45:48;6.50;99.90
23116;DHT22;11727;52.134;5.052;2023-03-01T16:48:14;6.50;99.90
23116;DHT22;11727;52.134;5.052;2023-03-01T16:50:40;6.40;99.90
23116;DHT22;11727;52.134;5.052;2023-03-01T16:53:05;6.40;99.90
23116;DHT22;11727;52.134;5.052;2023-03-01T16:55:31;6.30;99.90
23116;DHT22;11727;52.134;5.052;2023-03-01T16:57:57;6.20;99.90
23116;DHT22;11727;52.134;5.052;2023-03-01T17:00:23;6.20;99.90
23116;DHT22;11727;52.134;5.052;2023-03-01T17:02:48;6.10;99.90
23116;DHT22;11727;52.134;5.052;2023-03-01T17:05:14;6.00;99.90
23116;DHT22;11727;52.134;5.052;2023-03-01T17:07:40;6.00;99.90
23116;DHT22;11727;52.134;5.052;2023-03-01T17:10:09;5.90;99.90
23116;DHT22;11727;52.134;5.052;2023-03-01T17:12:35;5.80;99.90
23116;DHT22;11727;52.134;5.052;2023-03-01T17:15:01;5.80;99.90
23116;DHT22;11727;52.134;5.052;2023-03-01T17:17:27;5.70;99.90
23116;DHT22;11727;52.134;5.052;2023-03-01T17:19:52;5.70;99.90
23116;DHT22;11727;52.134;5.052;2023-03-01T17:22:18;5.60;99.90
23116;DHT22;11727;52.134;5.052;2023-03-01T17:24:44;5.50;99.90